This is the latest recevied weather packets stored in our database for station/object KC3QJO. If no packets are shown the sender has not sent any weather packets the latest 10 day(s).
| Time | Temp. | Humidity | Pressure | Rain* | Wind** | Luminosity | Snow |
|---|---|---|---|---|---|---|---|
| 1777861551 | 10° C | 45% | 1011.6 hPa | 0 mm | - | 0 W/m² | - |
| 1777860099 | 10.56° C | 44% | 1011.5 hPa | 0 mm | - | 0 W/m² | - |
| 1777856752 | 11.67° C | 40% | 1011.2 hPa | 0 mm | - | 0 W/m² | - |
| 1777856152 | 11.67° C | 39% | 1011.1 hPa | 0 mm | - | 0 W/m² | - |
| 1777854352 | 12.22° C | 38% | 1010.7 hPa | 0 mm | - | 0 W/m² | - |
| 1777851353 | 13.33° C | 35% | 1010.3 hPa | 0 mm | - | 16 W/m² | - |
| 1777847752 | 14.44° C | 33% | 1010 hPa | 0 mm | - | 93 W/m² | - |
| 1777843552 | 15° C | 29% | 1009.8 hPa | 0 mm | - | 411 W/m² | - |
| 1777842959 | 15° C | 29% | 1009.8 hPa | 0 mm | - | 427 W/m² | - |
| 1777841155 | 15° C | 31% | 1009.9 hPa | 0 mm | - | 517 W/m² | - |
| 1777838452 | 15° C | 31% | 1010.1 hPa | 0 mm | - | 700 W/m² | - |
| 1777834252 | 13.89° C | 30% | 1010.9 hPa | 0 mm | - | 838 W/m² | - |
| 1777833652 | 14.44° C | 32% | 1010.8 hPa | 0 mm | - | 819 W/m² | - |
| 1777831552 | 12.78° C | 32% | 1010.9 hPa | 0 mm | - | 339 W/m² | - |
| 1777831255 | 13.33° C | 31% | 1010.9 hPa | 0 mm | - | 271 W/m² | - |
| 1777830052 | 12.78° C | 32% | 1011.1 hPa | 0 mm | - | 294 W/m² | - |
| 1777829455 | 12.22° C | 30% | 1011.1 hPa | 0 mm | - | 1021 W/m² | - |
| 1777828564 | 12.22° C | 32% | 1011.3 hPa | 0 mm | - | 1018 W/m² | - |
| 1777825867 | 11.67° C | 35% | 1011.8 hPa | 0 mm | - | 387 W/m² | - |
| 1777825252 | 11.67° C | 38% | 1011.8 hPa | 0 mm | - | 967 W/m² | - |
| 1777824955 | 11.11° C | 40% | 1011.9 hPa | 0 mm | - | 369 W/m² | - |
| 1777824653 | 10.56° C | 39% | 1012 hPa | 0 mm | - | 397 W/m² | - |
| 1777822552 | 10.56° C | 43% | 1012.2 hPa | 0 mm | - | 977 W/m² | - |
| 1777822260 | 10.56° C | 41% | 1012.3 hPa | 0 mm | - | 937 W/m² | - |
| 1777821952 | 10° C | 41% | 1012.3 hPa | 0 mm | - | 904 W/m² | - |
* Rain latest hour (hover to see other rain measurements)
** Current wind speed in m/s (hover to see current wind gust speed)